Time;durP1;ratioP1;P1;durP2;ratioP2;P2;SDS_P1;SDS_P2;PMS_P1;PMS_P2;Temp;Humidity;BMP_temperature;BMP_pressure;BME280_temperature;BME280_humidity;BME280_pressure;Samples;Min_cycle;Max_cycle;Signal;HPM_P1;HPM_P2
2022/04/29 00:00:47;;;;;;;;;;;;;;;10.40;100.00;100717.59;5055984;28;19931;-79
2022/04/29 00:03:14;;;;;;;;;;;;;;;10.21;100.00;100707.41;5071624;28;20385;-79
2022/04/29 00:05:42;;;;;;;;;;;;;;;10.55;100.00;100705.38;5058864;28;20042;-79
2022/04/29 00:08:10;;;;;;;;;;;;;;;10.30;100.00;100712.69;5059328;28;19929;-79
2022/04/29 00:10:38;;;;;;;;;;;;;;;10.47;100.00;100714.84;5042768;28;19924;-79
2022/04/29 00:13:06;;;;;;;;;;;;;;;10.48;100.00;100711.69;5042663;28;19924;-79
2022/04/29 00:15:33;;;;;;;;;;;;;;;10.48;100.00;100711.69;5059173;28;20015;-79
2022/04/29 00:18:00;;;;;;;;;;;;;;;10.60;100.00;100699.44;5076658;28;19931;-79
2022/04/29 00:20:27;;;;;;;;;;;;;;;10.64;100.00;100703.06;5058823;28;20397;-79
2022/04/29 00:22:54;;;;;;;;;;;;;;;10.52;100.00;100709.75;5058805;28;19975;-79
2022/04/29 00:25:21;;;;;;;;;;;;;;;10.61;100.00;100701.03;5076754;28;20435;-79
2022/04/29 00:27:49;;;;;;;;;;;;;;;10.65;100.00;100704.66;5076754;28;19924;-79
2022/04/29 00:30:16;;;;;;;;;;;;;;;10.84;100.00;100701.66;5058926;28;19981;-79
2022/04/29 00:32:43;;;;;;;;;;;;;;;10.80;100.00;100701.63;5093826;28;19924;-79
2022/04/29 00:35:10;;;;;;;;;;;;;;;10.37;100.00;100699.59;5062638;28;19924;-79
2022/04/29 00:37:50;;;;;;;;;;;;;;;10.17;100.00;100697.38;5078694;28;20413;-79
2022/04/29 00:40:19;;;;;;;;;;;;;;;9.90;100.00;100695.81;5096829;28;19924;-79
2022/04/29 00:42:47;;;;;;;;;;;;;;;10.04;100.00;100696.00;5062039;28;20018;-79
2022/04/29 00:45:15;;;;;;;;;;;;;;;10.41;100.00;100688.44;5096837;28;20352;-79
2022/04/29 00:47:43;;;;;;;;;;;;;;;10.66;100.00;100681.91;5078644;28;20413;-79
2022/04/29 00:50:11;;;;;;;;;;;;;;;10.44;100.00;100673.69;5078397;28;19924;-79
2022/04/29 00:52:40;;;;;;;;;;;;;;;10.58;100.00;100673.84;5096416;28;19924;-79
2022/04/29 00:55:09;;;;;;;;;;;;;;;10.62;100.00;100678.28;5096795;28;19928;-79
2022/04/29 00:57:56;;;;;;;;;;;;;;;10.09;100.00;100681.69;5078479;28;19925;-79
2022/04/29 01:00:23;;;;;;;;;;;;;;;10.05;100.00;100676.06;5078219;28;20017;-79
2022/04/29 01:02:52;;;;;;;;;;;;;;;10.55;100.00;100678.22;5077670;28;19924;-79
2022/04/29 01:05:20;;;;;;;;;;;;;;;10.64;100.00;100669.50;5096271;28;20019;-79
2022/04/29 01:07:48;;;;;;;;;;;;;;;10.49;100.00;100667.78;5078274;28;19924;-79
2022/04/29 01:10:16;;;;;;;;;;;;;;;10.40;100.00;100661.69;5061806;28;19932;-79
2022/04/29 01:12:44;;;;;;;;;;;;;;;10.65;100.00;100657.13;5078100;28;20032;-79
2022/04/29 01:15:15;;;;;;;;;;;;;;;10.59;100.00;100653.91;5061591;28;19971;-79
2022/04/29 01:17:43;;;;;;;;;;;;;;;10.69;100.00;100649.59;5077650;28;20298;-79
2022/04/29 01:20:19;;;;;;;;;;;;;;;10.74;100.00;100646.41;5061245;28;20249;-79
2022/04/29 01:22:46;;;;;;;;;;;;;;;10.31;100.00;100641.66;5060886;28;19974;-79
2022/04/29 01:25:13;;;;;;;;;;;;;;;9.90;100.00;100646.38;5095534;28;19973;-79
2022/04/29 01:27:49;;;;;;;;;;;;;;;10.22;100.00;100647.53;5060820;28;19924;-78
2022/04/29 01:30:16;;;;;;;;;;;;;;;10.43;100.00;100650.56;5077153;28;20280;-78
2022/04/29 01:32:44;;;;;;;;;;;;;;;10.52;100.00;100644.66;5042952;28;19925;-78
2022/04/29 01:35:12;;;;;;;;;;;;;;;10.55;100.00;100646.66;5057200;28;19924;-79
2022/04/29 01:37:41;;;;;;;;;;;;;;;10.56;100.00;100645.47;5041690;28;19974;-78
2022/04/29 01:40:10;;;;;;;;;;;;;;;10.45;100.00;100639.78;5041064;28;19924;-79
2022/04/29 01:42:37;;;;;;;;;;;;;;;10.23;100.00;100637.16;5057392;28;20023;-79
2022/04/29 01:45:04;;;;;;;;;;;;;;;10.37;100.00;100628.94;5066520;28;19924;-79
2022/04/29 01:47:44;;;;;;;;;;;;;;;10.39;100.00;100627.34;5069619;28;20019;-79
2022/04/29 01:50:28;;;;;;;;;;;;;;;10.39;100.00;100630.16;5077419;28;19932;-79
2022/04/29 01:52:55;;;;;;;;;;;;;;;10.30;100.00;100632.44;5077293;28;19951;-79
2022/04/29 01:55:23;;;;;;;;;;;;;;;9.98;100.00;100636.09;5077354;28;20375;-79
2022/04/29 01:57:50;;;;;;;;;;;;;;;10.15;100.00;100629.91;5060834;28;20424;-79
2022/04/29 02:00:18;;;;;;;;;;;;;;;10.20;100.00;100626.75;5043989;28;19943;-79
2022/04/29 02:02:48;;;;;;;;;;;;;;;10.16;100.00;100625.94;5074334;28;19931;-79
2022/04/29 02:05:18;;;;;;;;;;;;;;;10.10;100.00;100633.84;5041047;28;19928;-79
2022/04/29 02:07:48;;;;;;;;;;;;;;;10.06;100.00;100632.16;5057305;28;20368;-79
2022/04/29 02:10:20;;;;;;;;;;;;;;;9.99;100.00;100632.09;5041628;28;20313;-79
2022/04/29 02:12:50;;;;;;;;;;;;;;;9.91;100.00;100633.19;5040498;28;19931;-79
2022/04/29 02:15:38;;;;;;;;;;;;;;;9.80;100.00;100640.66;5056547;28;20257;-79
2022/04/29 02:18:11;;;;;;;;;;;;;;;9.50;100.00;100642.63;5056736;28;19972;-79
2022/04/29 02:20:38;;;;;;;;;;;;;;;9.45;100.00;100640.19;5040345;28;19924;-79
2022/04/29 02:23:05;;;;;;;;;;;;;;;9.60;100.00;100644.78;5040246;28;19962;-79
2022/04/29 02:25:33;;;;;;;;;;;;;;;9.72;100.00;100650.94;5056684;28;19931;-79
2022/04/29 02:28:00;;;;;;;;;;;;;;;9.48;100.00;100645.03;5040163;28;19925;-79
2022/04/29 02:30:28;;;;;;;;;;;;;;;8.93;100.00;100639.06;5039770;28;19925;-79
2022/04/29 02:32:58;;;;;;;;;;;;;;;9.01;100.00;100643.56;5039831;28;19925;-79
2022/04/29 02:35:31;;;;;;;;;;;;;;;9.25;100.00;100642.31;5056219;28;19926;-79
2022/04/29 02:38:19;;;;;;;;;;;;;;;9.28;100.00;100640.75;5040301;28;19931;-78
2022/04/29 02:40:50;;;;;;;;;;;;;;;9.09;100.00;100639.69;5054121;28;19924;-78
2022/04/29 02:43:18;;;;;;;;;;;;;;;9.18;100.00;100637.44;5042666;28;20061;-78
2022/04/29 02:45:46;;;;;;;;;;;;;;;9.08;100.00;100640.88;5059408;28;20458;-78
2022/04/29 02:48:15;;;;;;;;;;;;;;;9.00;100.00;100638.34;5076377;28;19924;-79
2022/04/29 02:50:42;;;;;;;;;;;;;;;9.04;100.00;100637.22;5076242;28;19928;-78
2022/04/29 02:53:12;;;;;;;;;;;;;;;8.93;100.00;100629.88;5076266;28;19956;-78
2022/04/29 02:55:40;;;;;;;;;;;;;;;9.07;100.00;100636.47;5076156;28;20342;-79
2022/04/29 02:58:28;;;;;;;;;;;;;;;8.85;100.00;100628.97;5075814;28;19924;-78
2022/04/29 03:00:58;;;;;;;;;;;;;;;8.24;100.00;100633.91;5076101;28;19924;-78
2022/04/29 03:03:27;;;;;;;;;;;;;;;8.23;100.00;100639.84;5075785;28;20003;-79
2022/04/29 03:05:55;;;;;;;;;;;;;;;8.28;100.00;100632.00;5076269;28;19924;-78
2022/04/29 03:08:22;;;;;;;;;;;;;;;8.31;100.00;100642.41;5075953;28;19928;-78
2022/04/29 03:10:49;;;;;;;;;;;;;;;8.46;100.00;100643.44;5076059;28;19969;-78
2022/04/29 03:13:16;;;;;;;;;;;;;;;8.56;100.00;100646.41;5075593;28;19950;-78
2022/04/29 03:15:54;;;;;;;;;;;;;;;8.52;100.00;100641.94;5075939;28;19924;-78
2022/04/29 03:18:21;;;;;;;;;;;;;;;8.41;100.00;100644.56;5075774;28;19924;-78
2022/04/29 03:20:50;;;;;;;;;;;;;;;8.26;100.00;100634.34;5076117;28;19924;-78
2022/04/29 03:23:18;;;;;;;;;;;;;;;8.24;100.00;100636.69;5076471;28;19924;-79
2022/04/29 03:25:52;;;;;;;;;;;;;;;8.33;100.00;100639.25;5080000;28;19924;-78
2022/04/29 03:28:19;;;;;;;;;;;;;;;8.41;100.00;100638.16;5079529;28;19930;-78
2022/04/29 03:30:47;;;;;;;;;;;;;;;7.94;100.00;100627.34;5063145;28;20015;-78
2022/04/29 03:33:14;;;;;;;;;;;;;;;8.07;100.00;100620.44;5079507;28;19924;-79
2022/04/29 03:35:44;;;;;;;;;;;;;;;8.06;100.00;100624.38;5079763;28;19928;-78
2022/04/29 03:38:19;;;;;;;;;;;;;;;7.96;100.00;100625.00;5079729;28;19924;-78
2022/04/29 03:40:47;;;;;;;;;;;;;;;7.17;100.00;100625.72;5064885;28;20473;-78
2022/04/29 03:43:15;;;;;;;;;;;;;;;7.97;100.00;100629.38;5059175;28;20367;-78
2022/04/29 03:45:45;;;;;;;;;;;;;;;8.24;100.00;100619.97;5059728;28;20033;-78
2022/04/29 03:48:17;;;;;;;;;;;;;;;8.05;100.00;100620.00;5059717;28;19952;-78
2022/04/29 03:51:07;;;;;;;;;;;;;;;7.88;100.00;100620.47;5056715;28;19932;-79
2022/04/29 03:53:34;;;;;;;;;;;;;;;8.03;100.00;100625.13;5062511;28;19949;-78
2022/04/29 03:56:04;;;;;;;;;;;;;;;8.15;100.00;100633.31;5062270;28;19924;-78
2022/04/29 03:58:31;;;;;;;;;;;;;;;8.22;100.00;100633.47;5079134;28;19933;-78
2022/04/29 04:00:59;;;;;;;;;;;;;;;8.46;100.00;100621.16;5062669;28;19931;-78
2022/04/29 04:03:46;;;;;;;;;;;;;;;8.20;100.00;100623.84;5078896;28;19931;-78
2022/04/29 04:09:04;;;;;;;;;;;;;;;8.33;100.00;100623.31;5076802;28;19943;-79
2022/04/29 04:11:31;;;;;;;;;;;;;;;7.79;100.00;100631.03;5042191;28;19924;-78
2022/04/29 04:13:58;;;;;;;;;;;;;;;7.92;100.00;100621.31;5059155;28;19925;-78
2022/04/29 04:16:32;;;;;;;;;;;;;;;8.09;100.00;100622.84;5058900;28;19925;-78
2022/04/29 04:19:08;;;;;;;;;;;;;;;8.31;100.00;100624.88;5059912;28;19932;-78
2022/04/29 04:21:45;;;;;;;;;;;;;;;8.31;100.00;100620.13;5076255;28;19925;-78
2022/04/29 04:24:12;;;;;;;;;;;;;;;8.57;100.00;100622.94;5091494;28;19928;-79
2022/04/29 04:26:40;;;;;;;;;;;;;;;8.62;100.00;100619.84;5078439;28;20007;-78
2022/04/29 04:29:11;;;;;;;;;;;;;;;8.29;100.00;100628.03;5058556;28;19970;-79
2022/04/29 04:31:43;;;;;;;;;;;;;;;8.57;100.00;100628.50;5058709;28;19982;-78
2022/04/29 04:36:57;;;;;;;;;;;;;;;8.87;100.00;100623.84;5058383;28;19931;-78
2022/04/29 04:39:24;;;;;;;;;;;;;;;8.92;100.00;100623.50;5058261;28;19925;-78
2022/04/29 04:41:57;;;;;;;;;;;;;;;8.97;100.00;100628.75;5041601;28;19931;-78
2022/04/29 04:44:47;;;;;;;;;;;;;;;8.85;100.00;100625.38;5058374;28;19936;-78
2022/04/29 04:47:15;;;;;;;;;;;;;;;8.52;100.00;100625.25;5058255;28;19924;-78
2022/04/29 04:50:14;;;;;;;;;;;;;;;8.92;100.00;100625.50;5033667;28;20011;-78
2022/04/29 04:52:43;;;;;;;;;;;;;;;8.61;100.00;100623.81;5033862;28;19929;-78
2022/04/29 04:55:11;;;;;;;;;;;;;;;8.27;100.00;100618.44;5017142;28;20075;-78
2022/04/29 04:57:39;;;;;;;;;;;;;;;8.17;100.00;100625.41;5017306;28;20047;-78
2022/04/29 05:00:06;;;;;;;;;;;;;;;8.59;100.00;100617.81;5033663;28;19932;-78
2022/04/29 05:02:54;;;;;;;;;;;;;;;8.80;100.00;100623.72;4990454;28;19926;-78
2022/04/29 05:05:44;;;;;;;;;;;;;;;8.92;100.00;100629.06;5031292;28;19925;-78
2022/04/29 05:08:13;;;;;;;;;;;;;;;8.92;100.00;100628.28;5000592;28;19936;-78
2022/04/29 05:10:40;;;;;;;;;;;;;;;8.88;100.00;100627.41;5017000;28;19952;-78
2022/04/29 05:13:08;;;;;;;;;;;;;;;9.01;100.00;100631.63;5016936;28;19960;-79
2022/04/29 05:15:36;;;;;;;;;;;;;;;7.47;100.00;100635.13;5016961;28;19975;-78
2022/04/29 05:18:09;;;;;;;;;;;;;;;7.88;100.00;100631.59;5016704;28;19925;-78
2022/04/29 05:20:51;;;;;;;;;;;;;;;8.43;100.00;100639.44;5016840;28;20311;-78
2022/04/29 05:23:19;;;;;;;;;;;;;;;8.72;100.00;100641.50;5016632;28;20067;-78
2022/04/29 05:26:09;;;;;;;;;;;;;;;8.94;100.00;100637.06;5058626;28;19958;-78
2022/04/29 05:29:07;;;;;;;;;;;;;;;8.94;100.00;100643.47;5009272;28;20020;-78
2022/04/29 05:32:04;;;;;;;;;;;;;;;8.30;100.00;100639.97;4969495;28;19988;-78
2022/04/29 05:35:04;;;;;;;;;;;;;;;8.81;100.00;100639.28;4916648;29;19958;-78
2022/04/29 05:37:59;;;;;;;;;;;;;;;9.05;100.00;100661.16;4934611;29;19927;-79
2022/04/29 05:43:13;;;;;;;;;;;;;;;9.18;100.00;100652.56;4951541;29;19962;-78
2022/04/29 05:45:40;;;;;;;;;;;;;;;9.26;100.00;100666.25;4934980;29;19934;-78
2022/04/29 05:48:07;;;;;;;;;;;;;;;9.42;100.00;100652.91;4935215;28;19927;-78
2022/04/29 05:50:35;;;;;;;;;;;;;;;9.25;100.00;100653.47;4951353;29;19998;-78
2022/04/29 05:53:04;;;;;;;;;;;;;;;9.16;100.00;100650.94;4919412;29;19927;-79
2022/04/29 05:55:33;;;;;;;;;;;;;;;8.42;100.00;100640.59;4951679;29;20456;-79
2022/04/29 05:58:14;;;;;;;;;;;;;;;8.62;100.00;100667.22;4935467;29;19938;-78
2022/04/29 06:00:52;;;;;;;;;;;;;;;9.22;100.00;100661.78;4912407;29;19938;-78
2022/04/29 06:03:19;;;;;;;;;;;;;;;9.49;100.00;100655.00;4924793;29;20318;-78
2022/04/29 06:05:48;;;;;;;;;;;;;;;9.58;100.00;100658.31;4927095;28;19927;-79
2022/04/29 06:08:15;;;;;;;;;;;;;;;9.70;100.00;100658.06;4954755;28;20266;-79
2022/04/29 06:10:43;;;;;;;;;;;;;;;9.63;100.00;100663.56;5031232;28;20395;-79
2022/04/29 06:13:11;;;;;;;;;;;;;;;9.73;100.00;100662.88;5060254;28;19924;-78
2022/04/29 06:16:10;;;;;;;;;;;;;;;9.76;100.00;100660.16;5078646;28;19924;-79
2022/04/29 06:19:00;;;;;;;;;;;;;;;9.90;100.00;100662.31;5071882;28;19925;-78
2022/04/29 06:21:54;;;;;;;;;;;;;;;9.91;100.00;100658.31;5020130;28;20389;-79
2022/04/29 06:24:23;;;;;;;;;;;;;;;9.81;100.00;100653.44;5072074;28;19929;-78
2022/04/29 06:26:50;;;;;;;;;;;;;;;9.68;100.00;100660.44;5038840;28;20395;-78
2022/04/29 06:29:19;;;;;;;;;;;;;;;9.93;100.00;100655.97;5055655;28;19936;-79
2022/04/29 06:31:51;;;;;;;;;;;;;;;9.69;100.00;100650.88;5038996;28;19924;-79
2022/04/29 06:34:39;;;;;;;;;;;;;;;10.24;100.00;100652.72;5071928;28;19925;-78
2022/04/29 06:37:06;;;;;;;;;;;;;;;10.47;100.00;100647.78;5071718;28;20538;-79
2022/04/29 06:39:38;;;;;;;;;;;;;;;10.63;100.00;100646.34;5055575;28;20002;-79
2022/04/29 06:42:24;;;;;;;;;;;;;;;10.88;100.00;100646.53;5071955;28;19924;-79
2022/04/29 06:45:10;;;;;;;;;;;;;;;11.13;100.00;100641.94;5072224;28;20341;-79
2022/04/29 06:47:57;;;;;;;;;;;;;;;11.51;100.00;100646.16;5071017;28;20315;-79
2022/04/29 06:50:47;;;;;;;;;;;;;;;12.07;100.00;100644.41;4956680;28;19942;-79
2022/04/29 06:53:34;;;;;;;;;;;;;;;13.62;100.00;100638.81;4973356;28;20049;-80
2022/04/29 06:56:05;;;;;;;;;;;;;;;14.63;100.00;100637.47;4982470;28;20285;-79
2022/04/29 06:58:32;;;;;;;;;;;;;;;16.14;100.00;100627.44;4960687;28;20004;-78
2022/04/29 07:01:00;;;;;;;;;;;;;;;16.74;100.00;100615.25;4992320;28;20254;-77
2022/04/29 07:03:27;;;;;;;;;;;;;;;17.75;100.00;100610.56;4991997;28;19933;-79
2022/04/29 07:05:57;;;;;;;;;;;;;;;18.58;100.00;100605.50;4991995;28;19926;-79
2022/04/29 07:08:24;;;;;;;;;;;;;;;18.69;100.00;100608.88;4992171;28;20407;-79
2022/04/29 07:11:31;;;;;;;;;;;;;;;18.16;100.00;100609.31;4992251;28;19933;-79
2022/04/29 07:14:16;;;;;;;;;;;;;;;18.70;100.00;100611.28;4962930;28;20432;-79
2022/04/29 07:16:56;;;;;;;;;;;;;;;19.35;100.00;100610.00;4975738;28;20411;-80
2022/04/29 07:20:00;;;;;;;;;;;;;;;16.67;100.00;100612.56;4993374;28;20293;-79
2022/04/29 07:22:31;;;;;;;;;;;;;;;16.85;100.00;100622.34;4975910;28;20246;-79
2022/04/29 07:24:59;;;;;;;;;;;;;;;17.89;100.00;100634.91;4959620;28;19930;-80
2022/04/29 07:27:29;;;;;;;;;;;;;;;17.53;100.00;100628.38;4992254;28;20077;-80
2022/04/29 07:29:58;;;;;;;;;;;;;;;17.19;100.00;100620.13;5049737;28;20015;-81
2022/04/29 07:32:35;;;;;;;;;;;;;;;16.55;100.00;100624.44;5039781;28;20026;-81
2022/04/29 07:41:47;;;;;;;;;;;;;;;13.79;100.00;100635.13;5028025;28;19932;-80
2022/04/29 07:44:18;;;;;;;;;;;;;;;14.08;100.00;100642.22;5024846;28;19925;-80
2022/04/29 07:46:47;;;;;;;;;;;;;;;13.54;100.00;100629.59;5028615;28;20387;-79
2022/04/29 07:49:23;;;;;;;;;;;;;;;14.61;100.00;100623.03;5014332;28;19929;-80
2022/04/29 07:51:52;;;;;;;;;;;;;;;14.93;100.00;100623.56;5020150;28;19930;-79
2022/04/29 07:54:19;;;;;;;;;;;;;;;16.95;100.00;100612.09;5011404;28;19925;-80
2022/04/29 07:56:48;;;;;;;;;;;;;;;17.19;100.00;100602.38;4995426;28;19969;-80
2022/04/29 07:59:17;;;;;;;;;;;;;;;16.37;100.00;100604.16;4995611;28;20321;-79
2022/04/29 08:01:45;;;;;;;;;;;;;;;16.10;100.00;100615.41;5011466;28;19968;-85
2022/04/29 08:04:14;;;;;;;;;;;;;;;14.76;100.00;100616.06;5011498;28;19926;-78
2022/04/29 08:06:41;;;;;;;;;;;;;;;14.32;100.00;100618.81;5012155;28;20385;-83
2022/04/29 08:09:28;;;;;;;;;;;;;;;16.77;100.00;100626.50;5027448;28;19990;-81
2022/04/29 08:11:56;;;;;;;;;;;;;;;17.74;100.00;100613.81;5058958;28;19932;-82
2022/04/29 08:14:31;;;;;;;;;;;;;;;17.97;100.00;100610.91;5043358;28;20423;-82
2022/04/29 08:17:37;;;;;;;;;;;;;;;18.69;100.00;100606.84;5063319;28;19925;-82
2022/04/29 08:20:08;;;;;;;;;;;;;;;18.22;100.00;100613.97;5042805;28;19925;-80
2022/04/29 08:22:44;;;;;;;;;;;;;;;18.18;100.00;100613.28;5039699;28;19928;-81
2022/04/29 08:25:11;;;;;;;;;;;;;;;18.36;100.00;100613.66;5068684;28;19924;-81
2022/04/29 08:27:41;;;;;;;;;;;;;;;19.31;100.00;100617.78;5058272;28;19964;-79
2022/04/29 08:30:08;;;;;;;;;;;;;;;18.46;100.00;100607.00;5068773;28;19924;-81
2022/04/29 08:32:36;;;;;;;;;;;;;;;19.06;100.00;100611.97;5061932;28;19931;-80
2022/04/29 08:35:04;;;;;;;;;;;;;;;19.65;100.00;100618.06;5066920;28;20023;-82
2022/04/29 08:37:31;;;;;;;;;;;;;;;20.49;100.00;100611.09;5059405;28;19947;-82
2022/04/29 08:40:00;;;;;;;;;;;;;;;20.81;100.00;100616.56;5068294;28;19974;-84
2022/04/29 08:42:29;;;;;;;;;;;;;;;20.13;100.00;100613.47;5051118;28;19924;-84
2022/04/29 08:44:57;;;;;;;;;;;;;;;19.13;100.00;100620.28;5028641;28;20260;-82
2022/04/29 08:47:39;;;;;;;;;;;;;;;16.86;100.00;100623.13;5061964;28;19931;-81
2022/04/29 08:50:12;;;;;;;;;;;;;;;16.77;100.00;100639.81;5046436;28;19946;-80
2022/04/29 08:52:39;;;;;;;;;;;;;;;17.76;100.00;100636.81;5096449;28;19982;-81
2022/04/29 09:00:44;;;;;;;;;;;;;;;14.54;100.00;100642.75;5061711;28;19924;-78
2022/04/29 09:03:14;;;;;;;;;;;;;;;14.44;100.00;100652.91;5096196;28;19931;-79
2022/04/29 09:05:41;;;;;;;;;;;;;;;13.84;100.00;100660.00;5078161;28;20098;-79
2022/04/29 09:08:12;;;;;;;;;;;;;;;14.95;100.00;100657.72;5061488;28;19925;-79
2022/04/29 09:10:53;;;;;;;;;;;;;;;13.78;100.00;100656.03;5096198;28;19932;-79
2022/04/29 09:13:31;;;;;;;;;;;;;;;13.63;100.00;100662.91;5096113;28;19928;-81
2022/04/29 09:16:00;;;;;;;;;;;;;;;14.40;100.00;100668.97;5042147;28;20379;-81
2022/04/29 09:18:41;;;;;;;;;;;;;;;14.17;100.00;100662.25;5062466;28;19924;-83
2022/04/29 09:21:13;;;;;;;;;;;;;;;13.62;100.00;100661.28;5046016;28;19925;-85
2022/04/29 09:23:43;;;;;;;;;;;;;;;13.41;100.00;100658.53;5041260;28;20359;-83
2022/04/29 09:26:51;;;;;;;;;;;;;;;14.68;100.00;100658.75;5013990;28;19928;-83
2022/04/29 09:29:42;;;;;;;;;;;;;;;14.89;100.00;100667.03;5058265;28;19952;-82
2022/04/29 09:32:12;;;;;;;;;;;;;;;14.53;100.00;100658.03;5086096;28;19958;-82
2022/04/29 09:34:58;;;;;;;;;;;;;;;15.26;100.00;100658.66;5063379;28;20031;-83
2022/04/29 09:37:26;;;;;;;;;;;;;;;15.78;100.00;100660.91;5077581;28;20267;-82
2022/04/29 09:39:56;;;;;;;;;;;;;;;14.31;100.00;100656.59;5044799;28;19938;-83
2022/04/29 09:42:35;;;;;;;;;;;;;;;14.88;100.00;100651.34;5094161;28;19932;-83
2022/04/29 09:48:13;;;;;;;;;;;;;;;15.76;100.00;100657.75;5066500;28;19949;-84
2022/04/29 09:50:44;;;;;;;;;;;;;;;14.55;100.00;100652.81;5044557;28;19932;-85
2022/04/29 09:53:15;;;;;;;;;;;;;;;15.51;100.00;100656.44;5088479;28;19931;-84
2022/04/29 09:56:02;;;;;;;;;;;;;;;14.75;100.00;100659.50;5057080;28;19925;-91
2022/04/29 09:58:31;;;;;;;;;;;;;;;14.34;100.00;100655.78;5024062;28;20330;-85
2022/04/29 10:00:59;;;;;;;;;;;;;;;14.81;100.00;100648.59;5056574;28;19925;-85
2022/04/29 10:03:27;;;;;;;;;;;;;;;15.30;100.00;100654.56;5057041;28;20069;-83
2022/04/29 10:05:55;;;;;;;;;;;;;;;15.22;100.00;100649.44;5060648;28;20458;-83
2022/04/29 10:08:25;;;;;;;;;;;;;;;14.29;100.00;100645.75;5058702;28;20363;-83
2022/04/29 10:10:54;;;;;;;;;;;;;;;15.01;100.00;100658.88;5056396;28;19977;-80
2022/04/29 10:13:26;;;;;;;;;;;;;;;15.29;100.00;100644.53;5074271;28;19924;-80
2022/04/29 10:16:17;;;;;;;;;;;;;;;13.57;100.00;100661.72;5061777;28;19935;-80
2022/04/29 10:21:56;;;;;;;;;;;;;;;15.01;100.00;100639.16;5076675;28;19952;-80
2022/04/29 10:24:25;;;;;;;;;;;;;;;13.95;100.00;100655.16;5076451;28;19925;-80
2022/04/29 10:26:53;;;;;;;;;;;;;;;15.45;100.00;100647.63;5074827;28;19935;-81
2022/04/29 10:29:20;;;;;;;;;;;;;;;13.81;100.00;100655.19;5076070;28;19931;-80
2022/04/29 10:32:07;;;;;;;;;;;;;;;13.91;100.00;100649.53;5094067;28;19924;-80
2022/04/29 10:34:35;;;;;;;;;;;;;;;13.42;100.00;100648.91;5076316;28;20636;-81
2022/04/29 10:37:11;;;;;;;;;;;;;;;12.99;100.00;100648.16;5059863;28;19989;-80
2022/04/29 10:39:39;;;;;;;;;;;;;;;12.90;100.00;100644.13;5076501;28;19930;-80
2022/04/29 10:42:11;;;;;;;;;;;;;;;12.62;100.00;100634.50;5076124;28;19925;-80
2022/04/29 10:45:00;;;;;;;;;;;;;;;12.84;100.00;100646.53;5076196;28;19928;-80
2022/04/29 10:47:31;;;;;;;;;;;;;;;13.45;100.00;100637.66;5094460;28;19925;-81
2022/04/29 10:50:29;;;;;;;;;;;;;;;12.91;100.00;100638.13;5059746;28;19924;-80
2022/04/29 10:53:15;;;;;;;;;;;;;;;13.20;100.00;100631.31;5090858;28;19974;-80
2022/04/29 10:55:45;;;;;;;;;;;;;;;13.15;100.00;100622.47;5075047;28;19928;-81
2022/04/29 10:58:23;;;;;;;;;;;;;;;13.87;100.00;100623.44;5071943;28;19924;-82
2022/04/29 11:00:56;;;;;;;;;;;;;;;13.90;100.00;100619.03;5073898;28;20019;-82
2022/04/29 11:03:37;;;;;;;;;;;;;;;13.16;100.00;100615.69;5072712;28;20383;-81
2022/04/29 11:06:08;;;;;;;;;;;;;;;12.87;100.00;100622.50;5058082;28;20562;-80
2022/04/29 11:08:36;;;;;;;;;;;;;;;12.70;100.00;100624.91;5068614;28;19924;-78
2022/04/29 11:11:05;;;;;;;;;;;;;;;13.17;100.00;100615.28;5093523;28;19935;-78
2022/04/29 11:13:57;;;;;;;;;;;;;;;12.86;100.00;100626.50;5072462;28;20398;-80
2022/04/29 11:16:52;;;;;;;;;;;;;;;13.53;100.00;100624.38;5058923;28;19932;-82
2022/04/29 11:19:47;;;;;;;;;;;;;;;13.29;100.00;100625.25;5092503;28;19931;-81
2022/04/29 11:25:06;;;;;;;;;;;;;;;13.37;100.00;100624.03;5074851;28;19924;-82
2022/04/29 11:28:03;;;;;;;;;;;;;;;13.29;100.00;100622.47;5058104;28;19931;-81
2022/04/29 11:30:50;;;;;;;;;;;;;;;13.21;100.00;100621.66;5093271;28;19974;-81
2022/04/29 11:33:28;;;;;;;;;;;;;;;13.48;100.00;100619.22;5059806;28;20302;-82
2022/04/29 11:36:05;;;;;;;;;;;;;;;13.58;100.00;100627.59;5074807;28;19935;-81
2022/04/29 11:38:53;;;;;;;;;;;;;;;13.39;100.00;100613.22;5074775;28;19924;-82
2022/04/29 11:41:21;;;;;;;;;;;;;;;13.75;100.00;100621.09;5074398;28;19924;-82
2022/04/29 11:43:50;;;;;;;;;;;;;;;13.70;100.00;100612.28;5074896;28;19975;-82
2022/04/29 11:46:17;;;;;;;;;;;;;;;14.21;100.00;100601.19;5061857;28;19931;-82
2022/04/29 11:48:52;;;;;;;;;;;;;;;14.52;100.00;100605.00;5061815;28;19966;-82
2022/04/29 11:51:19;;;;;;;;;;;;;;;13.94;100.00;100611.38;5096587;28;19924;-82
2022/04/29 11:53:57;;;;;;;;;;;;;;;13.70;100.00;100618.72;5078598;28;19924;-82
2022/04/29 11:56:35;;;;;;;;;;;;;;;13.88;100.00;100616.63;5061878;28;19924;-82
2022/04/29 11:59:04;;;;;;;;;;;;;;;14.42;100.00;100601.88;5062136;28;19946;-82
2022/04/29 12:01:32;;;;;;;;;;;;;;;14.47;100.00;100603.44;5078578;28;19925;-82
2022/04/29 12:04:05;;;;;;;;;;;;;;;13.81;100.00;100613.06;5062171;28;19925;-82
2022/04/29 12:06:33;;;;;;;;;;;;;;;14.83;100.00;100601.94;5096305;28;19957;-82
2022/04/29 12:09:05;;;;;;;;;;;;;;;13.90;100.00;100596.56;5060528;28;19928;-82
2022/04/29 12:11:34;;;;;;;;;;;;;;;14.26;100.00;100597.97;5095979;28;19931;-82
2022/04/29 12:14:19;;;;;;;;;;;;;;;14.40;100.00;100589.44;5078180;28;19935;-82
2022/04/29 12:16:49;;;;;;;;;;;;;;;14.54;100.00;100585.72;5078083;28;19928;-82
2022/04/29 12:19:18;;;;;;;;;;;;;;;13.95;100.00;100582.09;5061514;28;19924;-82
2022/04/29 12:21:53;;;;;;;;;;;;;;;13.78;100.00;100575.31;5077564;28;19934;-82
2022/04/29 12:24:20;;;;;;;;;;;;;;;14.09;100.00;100577.16;5077901;28;19924;-82
2022/04/29 12:27:04;;;;;;;;;;;;;;;14.00;100.00;100573.19;5052774;28;19930;-82
2022/04/29 12:29:33;;;;;;;;;;;;;;;14.02;100.00;100570.78;5058678;28;19924;-82
2022/04/29 12:35:11;;;;;;;;;;;;;;;13.32;100.00;100583.16;5095670;28;20391;-81
2022/04/29 12:37:39;;;;;;;;;;;;;;;13.48;100.00;100579.91;5038535;28;19924;-82
2022/04/29 12:40:29;;;;;;;;;;;;;;;14.11;100.00;100568.31;5073194;28;19928;-82
2022/04/29 12:43:12;;;;;;;;;;;;;;;14.03;100.00;100566.75;5094427;28;19950;-82
2022/04/29 12:45:40;;;;;;;;;;;;;;;13.79;100.00;100573.31;5095533;28;19977;-82
2022/04/29 12:48:17;;;;;;;;;;;;;;;14.57;100.00;100568.78;5095124;28;20010;-82
2022/04/29 12:50:52;;;;;;;;;;;;;;;14.00;100.00;100571.19;5076986;28;19924;-82
2022/04/29 12:53:21;;;;;;;;;;;;;;;14.37;100.00;100570.59;5095106;28;20399;-82
2022/04/29 12:55:52;;;;;;;;;;;;;;;13.69;100.00;100560.16;5077544;28;19925;-82
2022/04/29 12:58:23;;;;;;;;;;;;;;;14.07;100.00;100557.09;5060619;28;19924;-82
2022/04/29 13:00:54;;;;;;;;;;;;;;;13.62;100.00;100565.78;5095063;28;19924;-82
2022/04/29 13:03:23;;;;;;;;;;;;;;;14.44;100.00;100554.47;5043780;28;20349;-82
2022/04/29 13:05:58;;;;;;;;;;;;;;;14.22;100.00;100557.81;5060014;28;19931;-82
2022/04/29 13:08:26;;;;;;;;;;;;;;;13.98;100.00;100575.66;5059904;28;19927;-82
2022/04/29 13:10:54;;;;;;;;;;;;;;;14.43;100.00;100563.31;5060512;28;20371;-82
2022/04/29 13:13:22;;;;;;;;;;;;;;;13.53;100.00;100566.22;5076973;28;19947;-82
2022/04/29 13:15:51;;;;;;;;;;;;;;;13.83;100.00;100563.66;5076673;28;19924;-82
2022/04/29 13:18:31;;;;;;;;;;;;;;;13.65;100.00;100557.34;5064155;28;19966;-82
2022/04/29 13:21:00;;;;;;;;;;;;;;;13.90;100.00;100555.19;5059836;28;19977;-82
2022/04/29 13:23:29;;;;;;;;;;;;;;;13.92;100.00;100560.41;5043962;28;20085;-82
2022/04/29 13:26:02;;;;;;;;;;;;;;;14.41;100.00;100554.47;5076033;28;20463;-82
2022/04/29 13:28:35;;;;;;;;;;;;;;;14.41;100.00;100554.47;5061608;28;20303;-82
2022/04/29 13:31:03;;;;;;;;;;;;;;;14.47;100.00;100552.81;5076485;28;19928;-82
2022/04/29 13:33:34;;;;;;;;;;;;;;;14.13;100.00;100538.59;5094614;28;19924;-82